createdAt,value
2023-11-15T00:01:13.946Z,89.79
2023-11-15T00:03:41.829Z,88.58
2023-11-15T00:06:09.737Z,88.01
2023-11-15T00:08:37.572Z,87.26
2023-11-15T00:11:05.640Z,86.89
2023-11-15T00:13:34.859Z,86.41
2023-11-15T00:16:02.515Z,85.85
2023-11-15T00:18:31.051Z,86.05
2023-11-15T00:20:58.556Z,86.56
2023-11-15T00:23:28.031Z,86.35
2023-11-15T00:25:55.685Z,85.79
2023-11-15T00:28:23.365Z,85.91
2023-11-15T00:30:50.927Z,86.07
2023-11-15T00:33:18.716Z,86.75
2023-11-15T00:35:46.404Z,87.25
2023-11-15T00:38:16.390Z,86.94
2023-11-15T00:40:44.192Z,87.01
2023-11-15T00:43:12.355Z,86.84
2023-11-15T00:45:39.975Z,86.58
2023-11-15T00:48:07.704Z,86.97
2023-11-15T00:50:35.366Z,87.15
2023-11-15T00:53:05.043Z,87.60
2023-11-15T00:55:32.689Z,87.79
2023-11-15T00:58:00.914Z,87.46
2023-11-15T01:00:28.711Z,87.17
2023-11-15T01:02:57.439Z,86.49
2023-11-15T01:05:25.870Z,86.57
2023-11-15T01:07:53.680Z,86.98
2023-11-15T01:10:22.164Z,87.13
2023-11-15T01:12:49.788Z,86.66
2023-11-15T01:15:17.594Z,86.54
2023-11-15T01:17:46.645Z,86.68
2023-11-15T01:20:14.634Z,87.36
2023-11-15T01:22:42.651Z,87.54
2023-11-15T01:25:10.724Z,87.54
2023-11-15T01:27:38.314Z,87.54
2023-11-15T01:30:06.672Z,87.15
2023-11-15T01:32:34.351Z,87.55
2023-11-15T01:35:02.094Z,87.03
2023-11-15T01:37:29.707Z,87.22
2023-11-15T01:39:57.468Z,87.33
2023-11-15T01:42:25.064Z,87.71
2023-11-15T01:44:52.768Z,87.95
2023-11-15T01:47:20.437Z,88.25
2023-11-15T01:49:48.066Z,88.30
2023-11-15T01:52:15.662Z,87.88
2023-11-15T01:54:43.364Z,87.42
2023-11-15T01:57:11.787Z,87.31
2023-11-15T01:59:39.400Z,87.29
2023-11-15T02:02:07.575Z,87.36
2023-11-15T02:04:35.098Z,87.33
2023-11-15T02:07:02.624Z,87.79
2023-11-15T02:09:31.365Z,87.88
2023-11-15T02:11:58.879Z,88.07
2023-11-15T02:14:26.776Z,88.33
2023-11-15T02:16:55.102Z,88.68
2023-11-15T02:19:22.756Z,88.79
2023-11-15T02:21:50.904Z,89.16
2023-11-15T02:24:18.579Z,89.72
2023-11-15T02:26:49.292Z,89.42
2023-11-15T02:29:16.872Z,89.54
2023-11-15T02:31:44.433Z,89.53
2023-11-15T02:34:11.928Z,89.25
2023-11-15T02:36:39.610Z,89.60
2023-11-15T02:39:10.160Z,89.41
2023-11-15T02:41:37.925Z,89.42
2023-11-15T02:44:05.963Z,89.08
2023-11-15T02:46:33.888Z,88.56
2023-11-15T02:49:01.604Z,88.25
2023-11-15T02:51:29.269Z,88.54
2023-11-15T02:53:58.205Z,88.09
2023-11-15T02:56:25.935Z,87.94
2023-11-15T02:58:53.605Z,88.27
2023-11-15T03:01:21.223Z,88.22
2023-11-15T03:03:48.908Z,88.21
2023-11-15T03:06:16.817Z,87.84
2023-11-15T03:08:44.451Z,87.59
2023-11-15T03:11:12.221Z,87.25
2023-11-15T03:13:39.813Z,87.46
2023-11-15T03:16:08.116Z,87.66
2023-11-15T03:18:35.738Z,88.16
2023-11-15T03:21:07.652Z,87.61
2023-11-15T03:23:35.149Z,87.16
2023-11-15T03:26:02.669Z,86.66
2023-11-15T03:28:30.945Z,86.30
2023-11-15T03:31:04.713Z,86.43
2023-11-15T03:33:32.423Z,86.67
2023-11-15T03:36:00.642Z,86.55
2023-11-15T03:38:28.168Z,86.35
2023-11-15T03:40:55.929Z,86.78
2023-11-15T03:43:24.123Z,87.22
2023-11-15T03:45:51.689Z,87.07
2023-11-15T03:48:19.514Z,86.59
2023-11-15T03:50:47.338Z,86.07
2023-11-15T03:53:14.897Z,86.03
2023-11-15T03:55:45.281Z,86.29
2023-11-15T03:58:13.863Z,86.85
2023-11-15T04:00:41.322Z,86.64
2023-11-15T04:03:09.206Z,86.76
2023-11-15T04:05:36.872Z,86.73
2023-11-15T04:08:04.883Z,87.00
2023-11-15T04:10:32.388Z,87.21
2023-11-15T04:13:00.579Z,86.76
2023-11-15T04:15:28.141Z,86.54
2023-11-15T04:17:55.736Z,86.19
2023-11-15T04:20:23.615Z,85.84
2023-11-15T04:22:51.317Z,86.72
2023-11-15T04:25:19.012Z,86.63
2023-11-15T04:27:46.588Z,86.40
2023-11-15T04:30:17.258Z,87.04
2023-11-15T04:32:46.743Z,87.59
2023-11-15T04:35:14.409Z,88.21
2023-11-15T04:37:41.965Z,88.35
2023-11-15T04:40:11.695Z,88.17
2023-11-15T04:42:40.234Z,88.26
2023-11-15T04:45:08.499Z,88.40
2023-11-15T04:47:36.782Z,87.62
2023-11-15T04:50:05.680Z,87.08
2023-11-15T04:52:33.250Z,86.86
2023-11-15T04:55:00.981Z,86.52
2023-11-15T04:57:30.648Z,86.61
2023-11-15T04:59:58.257Z,87.19
2023-11-15T05:02:28.765Z,87.41
2023-11-15T05:04:56.761Z,87.59
2023-11-15T05:07:26.564Z,88.09
2023-11-15T05:09:54.972Z,88.07
2023-11-15T05:14:50.175Z,88.05
2023-11-15T05:17:17.751Z,88.04
2023-11-15T05:19:45.705Z,88.10
2023-11-15T05:22:13.490Z,88.00
2023-11-15T05:24:42.159Z,87.91
2023-11-15T05:27:11.151Z,88.09
2023-11-15T05:29:38.945Z,87.85
2023-11-15T05:32:06.847Z,87.48
2023-11-15T05:34:34.843Z,87.08
2023-11-15T05:37:02.392Z,86.91
2023-11-15T05:39:30.465Z,86.63
2023-11-15T05:41:58.113Z,86.79
2023-11-15T05:44:25.879Z,86.78
2023-11-15T05:46:54.250Z,86.63
2023-11-15T05:49:21.870Z,86.48
2023-11-15T05:51:49.511Z,86.32
2023-11-15T05:54:17.622Z,86.35
2023-11-15T05:56:48.213Z,86.43
2023-11-15T05:59:15.773Z,86.64
2023-11-15T06:01:43.357Z,86.76
2023-11-15T06:04:11.925Z,86.99
2023-11-15T06:06:39.703Z,86.98
2023-11-15T06:09:07.403Z,86.97
2023-11-15T06:11:35.155Z,87.04
2023-11-15T06:14:03.085Z,87.03
2023-11-15T06:16:30.710Z,87.03
2023-11-15T06:18:59.527Z,87.09
2023-11-15T06:21:28.192Z,87.10
2023-11-15T06:23:56.790Z,87.25
2023-11-15T06:26:24.444Z,87.37
2023-11-15T06:28:56.003Z,87.67
2023-11-15T06:31:27.189Z,88.52
2023-11-15T06:33:54.990Z,89.27
2023-11-15T06:36:22.693Z,89.57
2023-11-15T06:38:50.954Z,89.86
2023-11-15T06:41:21.076Z,90.18
2023-11-15T06:43:53.296Z,90.56
2023-11-15T06:46:21.065Z,91.23
2023-11-15T06:48:49.122Z,91.82
2023-11-15T06:51:17.362Z,92.29
2023-11-15T06:53:47.329Z,92.70
2023-11-15T06:56:15.090Z,93.42
2023-11-15T06:58:45.543Z,94.02
2023-11-15T07:01:13.678Z,94.58
2023-11-15T07:03:48.249Z,94.93
2023-11-15T07:06:19.994Z,95.35
2023-11-15T07:08:48.080Z,95.72
2023-11-15T07:11:16.611Z,96.24
2023-11-15T07:13:47.119Z,96.34
2023-11-15T07:16:14.878Z,96.46
2023-11-15T07:18:43.248Z,96.28
2023-11-15T07:21:11.001Z,96.15
2023-11-15T07:23:41.758Z,96.01
2023-11-15T07:26:12.442Z,95.89
2023-11-15T07:28:43.632Z,95.68
2023-11-15T07:31:20.263Z,95.38
2023-11-15T07:33:48.266Z,95.24
2023-11-15T07:36:18.872Z,94.92
2023-11-15T07:38:49.850Z,94.35
2023-11-15T07:41:20.727Z,93.59
2023-11-15T07:43:49.356Z,93.28
2023-11-15T07:46:17.192Z,92.84
2023-11-15T07:48:44.982Z,92.37
2023-11-15T07:51:12.910Z,92.40
2023-11-15T07:53:40.581Z,92.53
2023-11-15T07:56:10.042Z,93.50
2023-11-15T07:58:38.361Z,93.46
2023-11-15T08:01:11.488Z,92.96
2023-11-15T08:03:40.965Z,92.67
2023-11-15T08:06:14.453Z,92.23
2023-11-15T08:08:45.177Z,91.96
2023-11-15T08:11:12.976Z,91.76
2023-11-15T08:13:40.737Z,91.96
2023-11-15T08:16:14.638Z,91.68
2023-11-15T08:18:46.481Z,91.52
2023-11-15T08:21:14.520Z,91.46
2023-11-15T08:23:43.649Z,91.23
2023-11-15T08:26:13.539Z,90.32
2023-11-15T08:28:45.436Z,89.92
2023-11-15T08:31:15.629Z,89.54
2023-11-15T08:33:46.247Z,89.21
2023-11-15T08:36:14.408Z,88.44
2023-11-15T08:38:42.156Z,88.57
2023-11-15T08:41:10.884Z,89.21
2023-11-15T08:43:39.222Z,90.37
2023-11-15T08:46:07.308Z,91.05
2023-11-15T08:48:38.553Z,91.76
2023-11-15T08:51:06.759Z,92.44
2023-11-15T08:53:34.523Z,92.72
2023-11-15T08:56:04.389Z,93.06
2023-11-15T08:58:32.922Z,92.70
2023-11-15T09:01:03.993Z,93.07
2023-11-15T09:03:32.081Z,93.03
2023-11-15T09:06:03.602Z,92.66
2023-11-15T09:08:33.733Z,92.46
2023-11-15T09:11:01.447Z,92.24
2023-11-15T09:13:30.605Z,92.22
2023-11-15T09:16:00.627Z,92.17
2023-11-15T09:18:32.202Z,91.64
2023-11-15T09:21:07.623Z,91.43
2023-11-15T09:23:37.952Z,91.17
2023-11-15T09:26:07.220Z,90.76
2023-11-15T09:28:35.752Z,90.70
2023-11-15T09:31:09.468Z,90.66
2023-11-15T09:33:37.607Z,90.22
2023-11-15T09:36:08.940Z,89.81
2023-11-15T09:38:36.784Z,89.42
2023-11-15T09:41:07.685Z,89.78
2023-11-15T09:43:36.294Z,89.79
2023-11-15T09:46:10.223Z,89.46
2023-11-15T09:48:40.162Z,89.35
2023-11-15T09:51:11.207Z,88.94
2023-11-15T09:53:40.065Z,89.02
2023-11-15T09:56:08.578Z,88.95
2023-11-15T09:58:36.553Z,89.12
2023-11-15T10:01:04.734Z,88.81
2023-11-15T10:03:32.579Z,88.99
2023-11-15T10:06:05.277Z,88.78
2023-11-15T10:08:33.329Z,88.87
2023-11-15T10:11:06.470Z,88.62
2023-11-15T10:13:39.558Z,88.72
2023-11-15T10:16:32.075Z,88.51
2023-11-15T10:19:03.610Z,88.23
2023-11-15T10:21:35.180Z,88.31
2023-11-15T10:24:14.317Z,88.79
2023-11-15T10:26:42.442Z,89.18
2023-11-15T10:29:14.259Z,89.30
2023-11-15T10:31:52.976Z,89.15
2023-11-15T10:34:34.160Z,89.10
2023-11-15T10:37:08.851Z,88.87
2023-11-15T10:39:45.912Z,88.51
2023-11-15T10:42:14.358Z,88.63
2023-11-15T10:44:43.459Z,89.08
2023-11-15T10:47:13.978Z,89.16
2023-11-15T10:49:44.929Z,89.19
2023-11-15T10:52:12.702Z,89.45
2023-11-15T10:54:40.279Z,89.08
2023-11-15T10:57:08.687Z,89.16
2023-11-15T10:59:38.384Z,88.78
2023-11-15T11:02:11.176Z,89.02
2023-11-15T11:04:40.486Z,89.11
2023-11-15T11:07:17.347Z,89.30
2023-11-15T11:10:01.239Z,89.57
2023-11-15T11:12:32.328Z,89.58
2023-11-15T11:15:25.146Z,89.68
2023-11-15T11:18:05.404Z,89.26
2023-11-15T11:20:38.961Z,88.96
2023-11-15T11:23:18.594Z,88.96
2023-11-15T11:25:49.762Z,88.82
2023-11-15T11:28:18.178Z,88.64
2023-11-15T11:30:46.175Z,88.14
2023-11-15T11:33:20.381Z,87.78
2023-11-15T11:35:49.627Z,87.60
2023-11-15T11:38:39.977Z,87.44
2023-11-15T11:41:10.220Z,86.85
2023-11-15T11:43:43.447Z,86.59
2023-11-15T11:46:15.750Z,86.68
2023-11-15T11:48:46.729Z,87.15
2023-11-15T11:51:15.914Z,86.25
2023-11-15T11:53:45.978Z,86.08
2023-11-15T11:56:15.370Z,86.28
2023-11-15T11:58:43.331Z,86.43
2023-11-15T12:01:14.883Z,86.82
2023-11-15T12:03:47.866Z,86.68
2023-11-15T12:06:16.467Z,86.53
2023-11-15T12:08:55.091Z,86.56
2023-11-15T12:11:24.461Z,86.35
2023-11-15T12:13:52.947Z,86.23
2023-11-15T12:16:27.075Z,86.15
2023-11-15T12:19:00.164Z,86.28
2023-11-15T12:21:44.142Z,86.09
2023-11-15T12:24:12.533Z,85.88
2023-11-15T12:26:50.099Z,85.73
2023-11-15T12:29:25.863Z,85.68
2023-11-15T12:31:56.633Z,85.81
2023-11-15T12:34:25.807Z,86.01
2023-11-15T12:36:53.575Z,86.25
2023-11-15T12:39:23.554Z,86.65
2023-11-15T12:41:53.855Z,86.92
2023-11-15T12:44:22.935Z,87.22
2023-11-15T12:46:58.732Z,87.05
2023-11-15T12:49:27.927Z,86.97
2023-11-15T12:51:56.242Z,87.03
2023-11-15T12:54:27.529Z,87.16
2023-11-15T12:57:15.422Z,87.46
2023-11-15T12:59:45.970Z,87.65
2023-11-15T13:02:19.820Z,87.59
2023-11-15T13:04:49.030Z,87.73
2023-11-15T13:07:19.674Z,88.37
2023-11-15T13:09:48.100Z,88.79
2023-11-15T13:12:45.345Z,88.90
2023-11-15T13:15:21.312Z,89.06
2023-11-15T13:17:50.316Z,88.76
2023-11-15T13:20:20.338Z,88.12
2023-11-15T13:22:55.059Z,87.86
2023-11-15T13:25:23.229Z,88.01
2023-11-15T13:27:51.516Z,87.94
2023-11-15T13:30:22.291Z,87.32
2023-11-15T13:32:50.371Z,86.61
2023-11-15T13:35:18.627Z,86.01
2023-11-15T13:37:52.611Z,85.45
2023-11-15T13:40:21.013Z,85.01
2023-11-15T13:42:50.559Z,84.67
2023-11-15T13:45:23.714Z,84.72
2023-11-15T13:47:52.085Z,84.95
2023-11-15T13:50:22.245Z,85.17
2023-11-15T13:52:51.606Z,85.35
2023-11-15T13:55:20.860Z,85.53
2023-11-15T13:57:52.315Z,85.78
2023-11-15T14:00:25.302Z,86.22
2023-11-15T14:02:53.264Z,86.09
2023-11-15T14:05:22.375Z,85.83
2023-11-15T14:07:50.661Z,85.81
2023-11-15T14:10:20.756Z,85.36
2023-11-15T14:12:48.594Z,84.81
2023-11-15T14:15:28.661Z,84.90
2023-11-15T14:17:56.464Z,84.82
2023-11-15T14:20:25.978Z,85.48
2023-11-15T14:22:57.041Z,85.41
2023-11-15T14:25:24.926Z,85.38
2023-11-15T14:27:56.387Z,85.30
2023-11-15T14:30:26.272Z,85.68
2023-11-15T14:32:55.536Z,86.19
2023-11-15T14:35:24.859Z,86.75
2023-11-15T14:37:56.543Z,86.58
2023-11-15T14:40:32.104Z,86.35
2023-11-15T14:43:00.256Z,86.37
2023-11-15T14:45:29.155Z,86.78
2023-11-15T14:48:02.456Z,87.43
2023-11-15T14:50:30.980Z,87.65
2023-11-15T14:53:28.287Z,87.55
2023-11-15T14:55:56.232Z,87.51
2023-11-15T14:58:27.441Z,87.33
2023-11-15T15:00:55.857Z,87.36
2023-11-15T15:03:29.848Z,87.48
2023-11-15T15:05:57.685Z,87.43
2023-11-15T15:08:25.848Z,87.39
2023-11-15T15:10:57.432Z,87.26
2023-11-15T15:13:25.995Z,87.15
2023-11-15T15:15:55.980Z,87.18
2023-11-15T15:18:32.352Z,87.07
2023-11-15T15:21:03.082Z,86.83
2023-11-15T15:23:33.960Z,86.96
2023-11-15T15:26:04.248Z,87.63
2023-11-15T15:28:55.285Z,88.11
2023-11-15T15:31:26.233Z,88.01
2023-11-15T15:33:54.482Z,87.93
2023-11-15T15:36:23.016Z,88.05
2023-11-15T15:39:04.817Z,88.13
2023-11-15T15:41:36.545Z,88.26
2023-11-15T15:44:05.061Z,88.69
2023-11-15T15:46:39.433Z,88.50
2023-11-15T15:49:10.831Z,88.50
2023-11-15T15:51:42.551Z,88.60
2023-11-15T15:54:18.338Z,88.45
2023-11-15T15:56:46.831Z,88.60
2023-11-15T15:59:14.931Z,88.37
2023-11-15T16:01:47.111Z,88.63
2023-11-15T16:04:17.218Z,88.45
2023-11-15T16:06:45.059Z,88.48
2023-11-15T16:09:13.031Z,88.24
2023-11-15T16:11:40.948Z,88.41
2023-11-15T16:14:09.064Z,88.38
2023-11-15T16:16:36.609Z,88.35
2023-11-15T16:19:04.519Z,88.50
2023-11-15T16:21:32.192Z,88.58
2023-11-15T16:24:01.279Z,88.48
2023-11-15T16:26:29.060Z,88.28
2023-11-15T16:28:56.990Z,88.06
2023-11-15T16:31:24.850Z,88.26
2023-11-15T16:33:52.716Z,88.44
2023-11-15T16:36:20.472Z,88.72
2023-11-15T16:38:48.278Z,88.70
2023-11-15T16:41:18.546Z,88.63
2023-11-15T16:43:46.384Z,88.95
2023-11-15T16:46:14.171Z,89.37
2023-11-15T16:48:44.249Z,89.49
2023-11-15T16:51:12.651Z,89.52
2023-11-15T16:53:40.343Z,89.24
2023-11-15T16:56:08.486Z,89.64
2023-11-15T16:58:36.196Z,89.68
2023-11-15T17:01:07.578Z,89.59
2023-11-15T17:03:35.721Z,89.32
2023-11-15T17:06:03.748Z,89.32
2023-11-15T17:08:33.404Z,89.57
2023-11-15T17:11:01.248Z,89.26
2023-11-15T17:13:29.338Z,89.49
2023-11-15T17:15:57.170Z,89.48
2023-11-15T17:18:25.467Z,89.22
2023-11-15T17:20:53.679Z,89.17
2023-11-15T17:23:21.363Z,89.11
2023-11-15T17:25:53.095Z,88.83
2023-11-15T17:28:20.901Z,88.93
2023-11-15T17:30:48.953Z,88.15
2023-11-15T17:33:17.718Z,87.99
2023-11-15T17:35:45.649Z,88.05
2023-11-15T17:38:13.428Z,87.33
2023-11-15T17:40:41.222Z,87.77
2023-11-15T17:43:08.824Z,88.17
2023-11-15T17:45:36.574Z,88.39
2023-11-15T17:48:04.465Z,88.24
2023-11-15T17:50:32.321Z,88.58
2023-11-15T17:53:00.093Z,88.50
2023-11-15T17:55:27.928Z,88.42
2023-11-15T17:57:55.730Z,88.73
2023-11-15T18:00:24.686Z,88.81
2023-11-15T18:02:52.547Z,89.02
2023-11-15T18:05:20.651Z,89.08
2023-11-15T18:07:48.300Z,88.89
2023-11-15T18:10:15.979Z,88.72
2023-11-15T18:12:44.318Z,88.86
2023-11-15T18:15:15.764Z,89.03
2023-11-15T18:17:43.458Z,89.94
2023-11-15T18:20:14.671Z,90.12
2023-11-15T18:22:42.927Z,90.14
2023-11-15T18:25:11.864Z,90.07
2023-11-15T18:27:40.978Z,89.31
2023-11-15T18:30:13.664Z,89.22
2023-11-15T18:32:45.444Z,89.55
2023-11-15T18:35:13.348Z,89.53
2023-11-15T18:37:41.556Z,89.52
2023-11-15T18:40:18.450Z,89.66
2023-11-15T18:42:46.476Z,89.95
2023-11-15T18:45:14.283Z,90.20
2023-11-15T18:47:42.458Z,89.88
2023-11-15T18:50:12.311Z,89.80
2023-11-15T18:52:42.980Z,89.91
2023-11-15T18:55:13.738Z,90.17
2023-11-15T18:57:42.921Z,90.13
2023-11-15T19:00:14.052Z,89.96
2023-11-15T19:02:45.034Z,90.13
2023-11-15T19:05:14.078Z,90.12
2023-11-15T19:07:41.932Z,90.42
2023-11-15T19:10:10.728Z,90.87
2023-11-15T19:12:38.701Z,91.26
2023-11-15T19:15:12.331Z,91.36
2023-11-15T19:17:41.467Z,91.57
2023-11-15T19:20:11.573Z,91.86
2023-11-15T19:22:42.008Z,92.00
2023-11-15T19:25:10.940Z,92.21
2023-11-15T19:27:39.690Z,92.25
2023-11-15T19:30:10.909Z,92.18
2023-11-15T19:32:38.868Z,91.94
2023-11-15T19:35:10.028Z,91.88
2023-11-15T19:37:39.291Z,91.92
2023-11-15T19:40:10.938Z,92.19
2023-11-15T19:42:39.891Z,91.93
2023-11-15T19:45:09.327Z,91.88
2023-11-15T19:47:37.142Z,91.99
2023-11-15T19:50:08.163Z,91.84
2023-11-15T19:52:35.900Z,91.90
2023-11-15T19:55:08.580Z,92.14
2023-11-15T19:57:40.851Z,92.13
2023-11-15T20:00:13.253Z,92.20
2023-11-15T20:02:47.114Z,92.40
2023-11-15T20:05:16.375Z,92.44
2023-11-15T20:07:44.448Z,92.48
2023-11-15T20:10:14.925Z,92.65
2023-11-15T20:12:42.835Z,92.59
2023-11-15T20:15:11.766Z,92.33
2023-11-15T20:17:39.829Z,92.44
2023-11-15T20:20:11.106Z,92.36
2023-11-15T20:22:46.008Z,92.56
2023-11-15T20:25:20.661Z,92.94
2023-11-15T20:27:48.435Z,92.81
2023-11-15T20:30:16.416Z,92.52
2023-11-15T20:32:44.296Z,92.97
2023-11-15T20:35:12.257Z,92.98
2023-11-15T20:37:39.963Z,93.04
2023-11-15T20:40:16.514Z,93.46
2023-11-15T20:42:47.900Z,94.15
2023-11-15T20:45:15.886Z,94.01
2023-11-15T20:47:43.813Z,93.61
2023-11-15T20:50:13.073Z,93.64
2023-11-15T20:52:41.116Z,94.12
2023-11-15T20:55:09.917Z,94.63
2023-11-15T20:57:37.841Z,94.64
2023-11-15T21:00:15.054Z,94.53
2023-11-15T21:02:42.898Z,94.85
2023-11-15T21:05:12.976Z,94.90
2023-11-15T21:07:42.079Z,94.72
2023-11-15T21:10:09.982Z,94.41
2023-11-15T21:12:37.613Z,94.90
2023-11-15T21:15:06.660Z,95.01
2023-11-15T21:17:34.512Z,95.38
2023-11-15T21:20:12.349Z,95.38
2023-11-15T21:22:41.173Z,95.24
2023-11-15T21:25:15.077Z,95.80
2023-11-15T21:27:43.777Z,96.07
2023-11-15T21:30:12.243Z,96.47
2023-11-15T21:32:43.650Z,96.88
2023-11-15T21:35:12.505Z,97.11
2023-11-15T21:37:44.241Z,96.99
2023-11-15T21:40:16.312Z,96.78
2023-11-15T21:42:47.189Z,96.61
2023-11-15T21:45:17.837Z,96.87
2023-11-15T21:47:48.513Z,97.08
2023-11-15T21:50:16.505Z,97.16
2023-11-15T21:52:44.972Z,97.38
2023-11-15T21:55:12.689Z,97.63
2023-11-15T21:57:40.425Z,97.60
2023-11-15T22:00:10.074Z,97.77
2023-11-15T22:02:37.657Z,97.85
2023-11-15T22:05:06.352Z,98.03
2023-11-15T22:07:33.937Z,98.55
2023-11-15T22:10:01.486Z,98.96
2023-11-15T22:12:29.155Z,98.98
2023-11-15T22:14:56.772Z,99.10
2023-11-15T22:17:24.257Z,99.54
2023-11-15T22:19:52.417Z,99.85
2023-11-15T22:22:19.965Z,99.84
2023-11-15T22:24:47.512Z,99.74
2023-11-15T22:27:15.248Z,100.00
2023-11-15T22:29:42.796Z,100.00
2023-11-15T22:32:10.340Z,100.00
2023-11-15T22:34:37.906Z,100.00
2023-11-15T22:37:05.446Z,100.00
2023-11-15T22:39:33.659Z,100.00
2023-11-15T22:42:01.276Z,100.00
2023-11-15T22:44:28.856Z,99.96
2023-11-15T22:46:56.447Z,100.00
2023-11-15T22:49:25.447Z,100.00
2023-11-15T22:51:52.998Z,100.00
2023-11-15T22:54:20.639Z,100.00
2023-11-15T22:56:48.247Z,100.00
2023-11-15T22:59:15.776Z,100.00
2023-11-15T23:01:43.291Z,99.75
2023-11-15T23:04:16.334Z,99.54
2023-11-15T23:06:45.922Z,99.73
2023-11-15T23:09:15.855Z,99.63
2023-11-15T23:11:43.418Z,99.54
2023-11-15T23:14:11.840Z,99.54
2023-11-15T23:16:40.689Z,99.00
2023-11-15T23:19:09.109Z,98.98
2023-11-15T23:21:37.669Z,99.55
2023-11-15T23:24:07.577Z,99.00
2023-11-15T23:26:35.225Z,98.62
2023-11-15T23:29:02.840Z,98.47
2023-11-15T23:31:30.385Z,98.15
2023-11-15T23:33:57.900Z,98.09
2023-11-15T23:36:25.391Z,98.34
2023-11-15T23:38:53.909Z,98.43
2023-11-15T23:41:21.444Z,98.53
2023-11-15T23:43:49.069Z,98.83
2023-11-15T23:46:16.833Z,99.17
2023-11-15T23:48:44.497Z,99.65
2023-11-15T23:51:11.972Z,99.51
2023-11-15T23:53:39.501Z,99.36
2023-11-15T23:56:07.840Z,99.42
2023-11-15T23:58:35.399Z,99.42
